Time;durP1;ratioP1;P1;durP2;ratioP2;P2;SDS_P1;SDS_P2;PMS_P1;PMS_P2;Temp;Humidity;BMP_temperature;BMP_pressure;BME280_temperature;BME280_humidity;BME280_pressure;Samples;Min_cycle;Max_cycle;Signal;HPM_P1;HPM_P2
2022/10/28 00:02:05;;;;;;;11.23;7.53;;;15.50;99.90;;;;;;5022918;28;20041;-90
2022/10/28 00:04:31;;;;;;;13.68;7.85;;;15.40;99.90;;;;;;5035475;28;20050;-92
2022/10/28 00:06:57;;;;;;;11.68;7.68;;;15.30;99.90;;;;;;5034106;28;20041;-90
2022/10/28 00:09:22;;;;;;;11.93;7.45;;;15.30;99.90;;;;;;5032079;28;20052;-90
2022/10/28 00:11:48;;;;;;;13.50;7.32;;;15.30;99.90;;;;;;5022192;28;20048;-91
2022/10/28 00:14:13;;;;;;;13.35;8.07;;;15.30;99.90;;;;;;5055889;28;20101;-92
2022/10/28 00:16:39;;;;;;;13.27;8.07;;;15.30;99.90;;;;;;5028842;28;20064;-90
2022/10/28 00:19:06;;;;;;;13.40;8.00;;;15.30;99.90;;;;;;5025181;28;20126;-90
2022/10/28 00:21:33;;;;;;;16.10;9.15;;;15.20;99.90;;;;;;5005563;28;20121;-90
2022/10/28 00:23:59;;;;;;;15.70;8.65;;;15.20;99.90;;;;;;5038115;28;20057;-91
2022/10/28 00:26:26;;;;;;;14.88;8.63;;;15.30;99.90;;;;;;5005651;28;20049;-91
2022/10/28 00:28:56;;;;;;;16.38;9.15;;;15.40;99.90;;;;;;5023657;28;20135;-92
2022/10/28 00:31:23;;;;;;;16.92;8.95;;;15.40;99.90;;;;;;5007574;28;20057;-91
2022/10/28 00:33:49;;;;;;;12.82;9.10;;;15.40;99.90;;;;;;4990699;28;20049;-91
2022/10/28 00:36:16;;;;;;;14.50;8.90;;;15.40;99.90;;;;;;5044512;28;20051;-92
2022/10/28 00:38:44;;;;;;;20.55;10.23;;;15.40;99.90;;;;;;5014125;28;20061;-92
2022/10/28 00:41:11;;;;;;;15.60;8.85;;;15.50;99.90;;;;;;5030694;28;20046;-91
2022/10/28 00:43:48;;;;;;;19.35;9.63;;;15.50;99.90;;;;;;5011425;28;20052;-92
2022/10/28 00:46:35;;;;;;;14.18;9.20;;;15.50;99.90;;;;;;4994161;28;20157;-91
2022/10/28 00:49:10;;;;;;;17.05;9.57;;;15.60;99.90;;;;;;5023445;28;20064;-90
2022/10/28 00:51:36;;;;;;;17.67;11.25;;;15.60;99.90;;;;;;5035048;28;20053;-90
2022/10/28 00:54:02;;;;;;;16.85;10.63;;;15.60;99.90;;;;;;5040832;28;20036;-90
2022/10/28 00:56:31;;;;;;;15.75;10.05;;;15.60;99.90;;;;;;5057380;28;20057;-90
2022/10/28 00:58:57;;;;;;;16.73;9.63;;;15.70;99.90;;;;;;5041381;28;20072;-89
2022/10/28 01:01:26;;;;;;;18.38;11.10;;;15.70;99.90;;;;;;5021263;28;20061;-92
2022/10/28 01:03:52;;;;;;;16.00;9.32;;;15.70;99.90;;;;;;5036857;28;20045;-93
2022/10/28 01:06:18;;;;;;;19.08;10.07;;;15.80;99.90;;;;;;5028820;28;20071;-92
2022/10/28 01:08:43;;;;;;;18.75;10.50;;;15.70;99.90;;;;;;5021077;28;20059;-92
2022/10/28 01:11:40;;;;;;;18.30;9.63;;;15.80;99.90;;;;;;5038559;28;20057;-88
2022/10/28 01:14:19;;;;;;;16.65;10.02;;;15.70;99.90;;;;;;5014474;28;20584;-88
2022/10/28 01:17:09;;;;;;;20.15;10.15;;;15.80;99.90;;;;;;5038605;28;20329;-90
2022/10/28 01:20:25;;;;;;;14.20;9.57;;;15.70;99.90;;;;;;5053090;28;20044;-90
2022/10/28 01:23:28;;;;;;;18.55;10.20;;;15.60;99.90;;;;;;4957412;28;20047;-91
2022/10/28 01:26:03;;;;;;;20.63;10.60;;;15.50;99.90;;;;;;4946458;28;20050;-92
2022/10/28 01:28:49;;;;;;;21.00;10.88;;;15.40;99.90;;;;;;5039289;28;20137;-91
2022/10/28 01:31:24;;;;;;;20.98;10.90;;;15.40;99.90;;;;;;5054869;28;20071;-92
2022/10/28 01:34:08;;;;;;;19.52;10.63;;;15.30;99.90;;;;;;5062456;28;20041;-90
2022/10/28 01:36:47;;;;;;;17.88;10.45;;;15.20;99.90;;;;;;5062730;28;20049;-90
2022/10/28 01:39:32;;;;;;;20.92;11.45;;;15.10;99.90;;;;;;5051055;28;20054;-92
2022/10/28 01:42:18;;;;;;;;;;;15.00;99.90;;;;;;5029806;28;20064;-92
2022/10/28 01:45:01;;;;;;;20.25;11.02;;;15.00;99.90;;;;;;5076840;28;19921;-92
2022/10/28 01:47:37;;;;;;;16.75;11.32;;;14.90;99.90;;;;;;5053617;28;20075;-92
2022/10/28 01:50:17;;;;;;;15.40;11.20;;;14.80;99.90;;;;;;5037922;28;20076;-91
2022/10/28 01:52:43;;;;;;;20.92;11.65;;;14.80;99.90;;;;;;5053740;28;20057;-91
2022/10/28 01:55:24;;;;;;;18.05;11.52;;;14.70;99.90;;;;;;5037327;28;20499;-92
2022/10/28 01:57:50;;;;;;;22.40;12.13;;;14.70;99.90;;;;;;5036505;28;20103;-93
2022/10/28 02:00:16;;;;;;;19.55;11.27;;;14.60;99.90;;;;;;5036443;28;20056;-91
2022/10/28 02:02:42;;;;;;;20.58;11.52;;;14.60;99.90;;;;;;5020216;28;20489;-90
2022/10/28 02:05:36;;;;;;;21.52;12.75;;;14.50;99.90;;;;;;5036553;28;20041;-91
2022/10/28 02:08:17;;;;;;;21.92;12.63;;;14.50;99.90;;;;;;4994148;28;20092;-92
2022/10/28 02:11:16;;;;;;;17.58;11.88;;;14.40;99.90;;;;;;5052936;28;20049;-92
2022/10/28 02:14:18;;;;;;;18.85;11.82;;;14.40;99.90;;;;;;5052263;28;20071;-92
2022/10/28 02:16:49;;;;;;;24.90;13.25;;;14.40;99.90;;;;;;5061812;28;20021;-88
2022/10/28 02:19:37;;;;;;;22.38;13.02;;;14.40;99.90;;;;;;5060157;28;20104;-92
2022/10/28 02:22:23;;;;;;;25.95;12.77;;;14.30;99.90;;;;;;5043038;28;20063;-90
2022/10/28 02:25:06;;;;;;;22.52;13.48;;;14.30;99.90;;;;;;5004232;28;20055;-92
2022/10/28 02:27:33;;;;;;;23.15;12.40;;;14.30;99.90;;;;;;5045169;28;20180;-91
2022/10/28 02:30:05;;;;;;;24.10;13.23;;;14.20;99.90;;;;;;5033033;28;20066;-89
2022/10/28 02:32:32;;;;;;;24.00;12.82;;;14.20;99.90;;;;;;5065945;28;20404;-90
2022/10/28 02:34:59;;;;;;;22.90;13.57;;;14.20;99.90;;;;;;5000196;28;20045;-89
2022/10/28 02:37:29;;;;;;;23.88;13.48;;;14.30;99.90;;;;;;5000204;28;20128;-92
2022/10/28 02:39:57;;;;;;;26.23;14.38;;;14.30;99.90;;;;;;5015759;28;20061;-93
2022/10/28 02:42:41;;;;;;;26.20;15.35;;;14.20;99.90;;;;;;5000057;28;20057;-93
2022/10/28 02:45:29;;;;;;;23.77;13.63;;;14.10;99.90;;;;;;5016355;28;20055;-91
2022/10/28 02:47:57;;;;;;;24.33;13.77;;;14.10;99.90;;;;;;5015945;28;20054;-91
2022/10/28 02:50:31;;;;;;;28.10;14.40;;;14.10;99.90;;;;;;5016071;28;20490;-92
2022/10/28 02:52:58;;;;;;;25.90;15.43;;;14.00;99.90;;;;;;5015702;28;20049;-92
2022/10/28 02:55:26;;;;;;;23.92;14.05;;;13.90;99.90;;;;;;5015794;28;20053;-90
2022/10/28 02:57:52;;;;;;;26.77;15.10;;;13.90;99.90;;;;;;4999079;28;20057;-92
2022/10/28 03:00:19;;;;;;;22.52;14.15;;;13.90;99.90;;;;;;4999524;28;20436;-91
2022/10/28 03:02:45;;;;;;;23.92;13.60;;;13.80;99.90;;;;;;5048115;28;20057;-92
2022/10/28 03:05:11;;;;;;;24.20;14.90;;;13.70;99.90;;;;;;5049007;28;20049;-92
2022/10/28 03:07:36;;;;;;;26.70;14.40;;;13.60;99.90;;;;;;5032426;28;20541;-90
2022/10/28 03:10:02;;;;;;;25.45;14.52;;;13.60;99.90;;;;;;5015426;28;20389;-92
2022/10/28 03:12:28;;;;;;;23.83;14.15;;;13.60;99.90;;;;;;4999629;28;20128;-92
2022/10/28 03:14:53;;;;;;;22.33;14.10;;;13.50;99.90;;;;;;5032022;28;20061;-89
2022/10/28 03:17:19;;;;;;;27.00;13.70;;;13.50;99.90;;;;;;5048744;28;20041;-89
2022/10/28 03:19:45;;;;;;;26.05;13.77;;;13.40;99.90;;;;;;4998686;28;20065;-91
2022/10/28 03:22:10;;;;;;;23.70;14.05;;;13.40;99.90;;;;;;5032250;28;20140;-92
2022/10/28 03:24:36;;;;;;;26.98;13.68;;;13.40;99.90;;;;;;5031684;28;20088;-91
2022/10/28 03:27:01;;;;;;;23.10;15.55;;;13.40;99.90;;;;;;5048554;28;20048;-92
2022/10/28 03:29:27;;;;;;;24.00;13.95;;;13.40;99.90;;;;;;5015396;28;20060;-92
2022/10/28 03:31:56;;;;;;;23.02;15.05;;;13.40;99.90;;;;;;5015169;28;20140;-93
2022/10/28 03:34:21;;;;;;;28.45;15.07;;;14.20;99.90;;;;;;5032260;28;20132;-90
2022/10/28 03:36:47;;;;;;;27.05;15.07;;;13.30;99.90;;;;;;5049674;28;20030;-88
2022/10/28 03:39:12;;;;;;;25.77;14.43;;;13.30;99.90;;;;;;5022686;28;20044;-87
2022/10/28 03:41:38;;;;;;;20.25;13.20;;;13.30;99.90;;;;;;5055657;28;20025;-88
2022/10/28 03:44:04;;;;;;;22.20;15.32;;;13.20;99.90;;;;;;5060177;28;20103;-91
2022/10/28 03:46:30;;;;;;;23.02;13.73;;;13.20;99.90;;;;;;5015825;28;20081;-90
2022/10/28 03:48:56;;;;;;;24.73;14.38;;;13.20;99.90;;;;;;5049938;28;20037;-90
2022/10/28 03:51:21;;;;;;;25.10;14.88;;;13.10;99.90;;;;;;5007252;28;20122;-89
2022/10/28 03:53:47;;;;;;;24.52;14.98;;;13.10;99.90;;;;;;5022300;28;20053;-89
2022/10/28 03:56:13;;;;;;;24.58;14.52;;;13.10;99.90;;;;;;5040470;28;20042;-89
2022/10/28 03:58:38;;;;;;;23.80;15.25;;;13.00;99.90;;;;;;5040437;28;20042;-91
2022/10/28 04:01:04;;;;;;;23.40;14.82;;;13.00;99.90;;;;;;5035470;28;20096;-88
2022/10/28 04:03:30;;;;;;;25.95;15.93;;;13.00;99.90;;;;;;5042261;28;20080;-91
2022/10/28 04:05:55;;;;;;;21.00;15.40;;;12.90;99.90;;;;;;5041875;28;20053;-87
2022/10/28 04:08:22;;;;;;;24.95;15.55;;;12.90;99.90;;;;;;5070911;28;20059;-90
2022/10/28 04:10:47;;;;;;;21.60;14.43;;;12.80;99.90;;;;;;5010339;28;20045;-91
2022/10/28 04:13:13;;;;;;;25.27;15.65;;;12.80;99.90;;;;;;5040707;28;20065;-92
2022/10/28 04:15:39;;;;;;;28.02;15.52;;;12.70;99.90;;;;;;5023342;28;20502;-92
2022/10/28 04:18:04;;;;;;;25.15;15.52;;;12.80;99.90;;;;;;5039029;28;20057;-91
2022/10/28 04:20:30;;;;;;;24.50;16.08;;;12.70;99.90;;;;;;5034943;28;20053;-86
2022/10/28 04:22:56;;;;;;;25.83;15.60;;;12.70;99.90;;;;;;5058022;28;20030;-89
2022/10/28 04:25:22;;;;;;;27.23;16.35;;;12.70;99.90;;;;;;5041613;28;20033;-88
2022/10/28 04:27:47;;;;;;;26.65;16.63;;;12.70;99.90;;;;;;5041491;28;20025;-86
2022/10/28 04:30:13;;;;;;;30.45;17.00;;;12.80;99.90;;;;;;5024331;28;20073;-91
2022/10/28 04:32:39;;;;;;;25.50;16.30;;;12.80;99.90;;;;;;5031386;28;20056;-89
2022/10/28 04:35:05;;;;;;;27.67;16.55;;;12.90;99.90;;;;;;5018433;28;20105;-91
2022/10/28 04:37:31;;;;;;;22.65;15.95;;;12.80;99.90;;;;;;5012879;28;20041;-92
2022/10/28 04:39:57;;;;;;;26.40;15.75;;;12.80;99.90;;;;;;5029947;28;20063;-92
2022/10/28 04:42:22;;;;;;;25.77;16.13;;;12.70;99.90;;;;;;5061091;28;20110;-91
2022/10/28 04:44:54;;;;;;;24.92;16.00;;;12.70;99.90;;;;;;5018585;28;20107;-90
2022/10/28 04:47:19;;;;;;;22.60;15.38;;;12.60;99.90;;;;;;5035107;28;20041;-92
2022/10/28 04:49:45;;;;;;;25.90;14.32;;;12.60;99.90;;;;;;5017862;28;20041;-89
2022/10/28 04:52:11;;;;;;;26.83;16.33;;;12.50;99.90;;;;;;5018882;28;20451;-93
2022/10/28 04:54:36;;;;;;;27.15;15.90;;;12.50;99.90;;;;;;5036123;28;20053;-92
2022/10/28 04:57:02;;;;;;;29.00;15.73;;;12.50;99.90;;;;;;5034370;28;20029;-90
2022/10/28 04:59:28;;;;;;;27.33;15.13;;;12.50;99.90;;;;;;5041423;28;20030;-88
2022/10/28 05:01:53;;;;;;;29.88;16.15;;;12.50;99.90;;;;;;5048451;28;20049;-86
2022/10/28 05:04:22;;;;;;;28.92;15.38;;;12.50;99.90;;;;;;5029158;28;20061;-90
2022/10/28 05:06:48;;;;;;;22.83;16.23;;;12.50;99.90;;;;;;5006307;28;20389;-92
2022/10/28 05:09:13;;;;;;;29.48;15.82;;;12.40;99.90;;;;;;5023598;28;20105;-89
2022/10/28 05:11:39;;;;;;;26.38;15.70;;;12.40;99.90;;;;;;5072080;28;20033;-88
2022/10/28 05:14:05;;;;;;;26.73;15.30;;;12.40;99.90;;;;;;5056482;28;20543;-92
2022/10/28 05:16:30;;;;;;;32.67;16.58;;;12.40;99.90;;;;;;5051742;28;20090;-92
2022/10/28 05:18:57;;;;;;;23.70;16.13;;;12.40;99.90;;;;;;5017648;28;20048;-93
2022/10/28 05:21:22;;;;;;;33.72;15.95;;;12.40;99.90;;;;;;5017894;28;20050;-90
2022/10/28 05:23:48;;;;;;;23.60;15.65;;;12.40;99.90;;;;;;5017543;28;20096;-91
2022/10/28 05:26:14;;;;;;;27.15;16.27;;;12.30;99.90;;;;;;5051946;28;20054;-91
2022/10/28 05:28:39;;;;;;;29.38;16.85;;;12.30;99.90;;;;;;5039621;28;20045;-90
2022/10/28 05:31:10;;;;;;;27.42;16.60;;;12.30;99.90;;;;;;5039075;28;20052;-91
2022/10/28 05:33:36;;;;;;;26.60;16.05;;;12.30;99.90;;;;;;5002732;28;20053;-92
2022/10/28 05:36:02;;;;;;;31.23;16.60;;;12.30;99.90;;;;;;5001385;28;20057;-93
2022/10/28 05:38:27;;;;;;;27.40;16.17;;;12.20;99.90;;;;;;5035628;28;20060;-91
2022/10/28 05:40:53;;;;;;;29.95;16.33;;;12.30;99.90;;;;;;5035563;28;20045;-93
2022/10/28 05:43:19;;;;;;;24.60;15.18;;;12.30;99.90;;;;;;5021211;28;20045;-91
2022/10/28 05:45:53;;;;;;;25.88;14.98;;;12.10;99.90;;;;;;5018473;28;20052;-92
2022/10/28 05:48:19;;;;;;;28.40;14.77;;;12.10;99.90;;;;;;5034031;28;20037;-92
2022/10/28 05:50:45;;;;;;;26.38;15.05;;;12.10;99.90;;;;;;5021027;28;20052;-91
2022/10/28 05:53:10;;;;;;;24.77;16.25;;;12.10;99.90;;;;;;5016926;28;20433;-92
2022/10/28 05:55:36;;;;;;;25.77;15.63;;;12.10;99.90;;;;;;5002304;28;20048;-91
2022/10/28 05:58:02;;;;;;;28.95;15.82;;;12.10;99.90;;;;;;5033854;28;20045;-93
2022/10/28 06:00:27;;;;;;;26.23;15.05;;;12.10;99.90;;;;;;5017506;28;20081;-91
2022/10/28 06:03:10;;;;;;;27.60;15.90;;;12.10;99.90;;;;;;5037121;28;20140;-93
2022/10/28 06:05:41;;;;;;;26.70;14.75;;;12.10;99.90;;;;;;5019891;28;20045;-91
2022/10/28 06:08:07;;;;;;;27.40;15.48;;;12.10;99.90;;;;;;5001377;28;20045;-92
2022/10/28 06:10:33;;;;;;;28.70;16.73;;;12.10;99.90;;;;;;5017261;28;20051;-92
2022/10/28 06:12:58;;;;;;;27.65;16.00;;;12.10;99.90;;;;;;5020686;28;20042;-87
2022/10/28 06:15:24;;;;;;;30.23;15.75;;;12.10;99.90;;;;;;5039421;28;20097;-88
2022/10/28 06:17:50;;;;;;;33.58;15.98;;;12.10;99.90;;;;;;5056103;28;20029;-89
2022/10/28 06:20:16;;;;;;;29.52;16.13;;;12.10;99.90;;;;;;5056125;28;20063;-88
2022/10/28 06:22:55;;;;;;;29.73;17.02;;;12.20;99.90;;;;;;5037654;28;20041;-91
2022/10/28 06:25:23;;;;;;;34.42;16.45;;;12.20;99.90;;;;;;5024414;28;20480;-92
2022/10/28 06:27:56;;;;;;;27.23;15.80;;;12.20;99.90;;;;;;5001242;28;20124;-92
2022/10/28 06:30:22;;;;;;;28.30;16.15;;;12.20;99.90;;;;;;5000120;28;20109;-91
2022/10/28 06:32:48;;;;;;;26.40;14.73;;;12.20;99.90;;;;;;5034078;28;20061;-92
2022/10/28 06:35:14;;;;;;;27.05;15.30;;;12.20;99.90;;;;;;5017424;28;20049;-92
2022/10/28 06:37:39;;;;;;;22.77;14.20;;;12.30;99.90;;;;;;5002634;28;20052;-92
2022/10/28 06:40:06;;;;;;;28.10;15.43;;;12.30;99.90;;;;;;5036445;28;20041;-91
2022/10/28 06:42:31;;;;;;;29.30;15.55;;;12.30;99.90;;;;;;5020637;28;20046;-90
2022/10/28 06:44:57;;;;;;;27.20;14.95;;;12.40;99.90;;;;;;5034815;28;20053;-91
2022/10/28 06:47:25;;;;;;;23.88;14.30;;;12.40;99.90;;;;;;5000574;28;20080;-92
2022/10/28 06:49:51;;;;;;;28.83;15.40;;;12.80;99.90;;;;;;5016663;28;20048;-90
2022/10/28 06:52:17;;;;;;;24.77;15.30;;;12.60;99.90;;;;;;5034393;28;20085;-89
2022/10/28 06:54:42;;;;;;;29.80;14.93;;;12.60;99.90;;;;;;5050370;28;20049;-92
2022/10/28 06:57:09;;;;;;;27.00;15.73;;;12.60;99.90;;;;;;5026283;28;20077;-94
2022/10/28 06:59:35;;;;;;;24.88;15.15;;;12.70;99.90;;;;;;5042664;28;20517;-91
2022/10/28 07:02:01;;;;;;;24.13;15.10;;;12.80;99.90;;;;;;5056908;28;20057;-90
2022/10/28 07:04:26;;;;;;;25.80;15.95;;;12.80;99.90;;;;;;5073520;28;20093;-90
2022/10/28 07:06:56;;;;;;;26.63;15.15;;;12.90;99.90;;;;;;5002931;28;20049;-89
2022/10/28 07:09:21;;;;;;;26.73;14.35;;;13.10;99.90;;;;;;5005573;28;20064;-90
2022/10/28 07:11:47;;;;;;;24.80;13.88;;;13.20;99.90;;;;;;5057189;28;20490;-90
2022/10/28 07:14:13;;;;;;;26.33;14.48;;;13.50;99.90;;;;;;5005500;28;20049;-91
2022/10/28 07:16:39;;;;;;;22.05;13.65;;;13.70;99.90;;;;;;5058341;28;20090;-89
2022/10/28 07:19:04;;;;;;;23.80;13.38;;;13.80;99.90;;;;;;5027059;28;20049;-88
2022/10/28 07:21:30;;;;;;;19.30;12.15;;;14.00;99.90;;;;;;5035529;28;20045;-89
2022/10/28 07:23:56;;;;;;;25.40;12.43;;;14.20;99.90;;;;;;5035847;28;20046;-89
2022/10/28 07:26:22;;;;;;;19.83;11.45;;;14.50;99.90;;;;;;5035539;28;20073;-91
2022/10/28 07:28:47;;;;;;;21.00;12.10;;;14.90;99.90;;;;;;5002537;28;20482;-88
2022/10/28 07:31:13;;;;;;;16.98;10.60;;;15.30;99.90;;;;;;5003431;28;20057;-89
2022/10/28 07:33:39;;;;;;;18.35;9.70;;;15.70;99.90;;;;;;5019559;28;20052;-87
2022/10/28 07:36:05;;;;;;;20.25;10.40;;;15.80;99.90;;;;;;5071603;28;20145;-86
2022/10/28 07:38:31;;;;;;;17.05;8.07;;;16.30;99.90;;;;;;5041897;28;20092;-89
2022/10/28 07:40:56;;;;;;;12.35;7.43;;;16.50;99.90;;;;;;5025711;28;20153;-86
2022/10/28 07:43:22;;;;;;;11.45;7.57;;;16.80;99.90;;;;;;5041627;28;20049;-88
2022/10/28 07:45:59;;;;;;;15.45;7.38;;;17.00;99.90;;;;;;5051537;28;20090;-88
2022/10/28 07:48:24;;;;;;;13.90;6.78;;;17.30;99.90;;;;;;5026117;28;20072;-89
2022/10/28 07:50:50;;;;;;;14.02;7.05;;;17.20;99.90;;;;;;5043225;28;20045;-86
2022/10/28 07:53:16;;;;;;;11.77;6.63;;;17.30;99.90;;;;;;5025347;28;20507;-85
2022/10/28 07:55:41;;;;;;;11.27;7.25;;;17.40;99.90;;;;;;5077585;28;20068;-86
2022/10/28 07:58:07;;;;;;;9.93;5.72;;;17.60;99.90;;;;;;5026968;28;20056;-85
2022/10/28 08:00:32;;;;;;;13.80;6.55;;;18.00;99.90;;;;;;5044946;28;20098;-89
2022/10/28 08:02:58;;;;;;;12.52;6.72;;;17.20;99.90;;;;;;5046931;28;20466;-88
2022/10/28 08:05:24;;;;;;;11.48;6.30;;;17.20;99.90;;;;;;5047563;28;20057;-90
2022/10/28 08:07:49;;;;;;;12.70;6.18;;;17.30;99.90;;;;;;5011788;28;20033;-89
2022/10/28 08:10:15;;;;;;;14.05;6.20;;;17.40;99.90;;;;;;4986155;28;20045;-88
2022/10/28 08:12:41;;;;;;;15.60;6.47;;;17.40;99.90;;;;;;5015689;28;20076;-87
2022/10/28 08:15:09;;;;;;;13.95;6.60;;;17.40;99.90;;;;;;5014066;28;20087;-87
2022/10/28 08:17:34;;;;;;;15.68;6.90;;;17.30;99.90;;;;;;5013185;28;20140;-87
2022/10/28 08:20:00;;;;;;;16.13;6.95;;;17.30;99.90;;;;;;5010593;28;20139;-86
2022/10/28 08:22:26;;;;;;;10.55;6.30;;;17.30;99.90;;;;;;5003793;28;20042;-88
2022/10/28 08:24:51;;;;;;;15.43;7.53;;;17.40;99.90;;;;;;5000969;28;20053;-87
2022/10/28 08:27:17;;;;;;;13.15;6.00;;;17.60;99.90;;;;;;5017546;28;20053;-86
2022/10/28 08:29:42;;;;;;;11.23;6.50;;;17.80;99.90;;;;;;5035124;28;20049;-87
2022/10/28 08:32:08;;;;;;;10.18;5.95;;;17.80;99.90;;;;;;5004639;28;20046;-88
2022/10/28 08:34:34;;;;;;;13.02;6.30;;;17.90;99.90;;;;;;5001658;28;20484;-87
2022/10/28 08:37:00;;;;;;;11.00;5.65;;;17.80;99.90;;;;;;5002436;28;20501;-90
2022/10/28 08:39:25;;;;;;;11.75;6.30;;;17.80;99.90;;;;;;5004502;28;20124;-87
2022/10/28 08:42:03;;;;;;;12.48;5.70;;;17.90;99.90;;;;;;5021151;28;20100;-88
2022/10/28 08:44:41;;;;;;;10.15;5.68;;;18.10;99.90;;;;;;5005030;28;20096;-87
2022/10/28 08:47:22;;;;;;;11.88;5.32;;;18.30;99.90;;;;;;5004891;28;20452;-89
2022/10/28 08:49:49;;;;;;;11.05;6.07;;;18.50;99.90;;;;;;5017213;28;20053;-87
2022/10/28 08:52:14;;;;;;;14.50;5.95;;;18.90;99.90;;;;;;5000541;28;20092;-87
2022/10/28 08:55:04;;;;;;;10.15;5.65;;;19.10;99.90;;;;;;5004659;28;20054;-86
2022/10/28 08:57:38;;;;;;;10.02;5.47;;;19.00;99.90;;;;;;5011226;28;20037;-87
2022/10/28 09:00:33;;;;;;;10.98;5.60;;;18.80;99.90;;;;;;5024350;28;20038;-85
2022/10/28 09:03:13;;;;;;;15.63;5.32;;;18.90;99.90;;;;;;4992315;28;20063;-89
2022/10/28 09:05:52;;;;;;;12.10;5.60;;;18.70;99.90;;;;;;5033389;28;20527;-88
2022/10/28 09:08:20;;;;;;;10.60;5.43;;;18.80;99.90;;;;;;5053207;28;20041;-88
2022/10/28 09:10:55;;;;;;;15.32;5.70;;;18.70;99.90;;;;;;5016923;28;20052;-86
2022/10/28 09:13:49;;;;;;;14.10;5.60;;;18.70;99.90;;;;;;5023147;28;20045;-87
2022/10/28 09:16:43;;;;;;;11.00;5.20;;;18.70;99.90;;;;;;5023028;28;20147;-88
2022/10/28 09:19:15;;;;;;;12.73;5.63;;;18.60;99.90;;;;;;5000411;28;20054;-88
2022/10/28 09:21:46;;;;;;;10.73;5.60;;;18.60;99.90;;;;;;5016165;28;20512;-88
2022/10/28 09:24:20;;;;;;;11.93;6.03;;;18.60;99.90;;;;;;5017711;28;20058;-88
2022/10/28 09:27:02;;;;;;;13.13;4.78;;;18.60;99.90;;;;;;5018524;28;20072;-88
2022/10/28 09:29:30;;;;;;;15.13;6.15;;;18.60;99.90;;;;;;5050893;28;20401;-89
2022/10/28 09:32:20;;;;;;;12.88;5.53;;;18.60;99.90;;;;;;5032693;28;20060;-87
2022/10/28 09:34:53;;;;;;;12.05;5.97;;;18.50;99.90;;;;;;5032621;28;20081;-87
2022/10/28 09:37:20;;;;;;;14.33;5.63;;;18.60;99.90;;;;;;5016946;28;20107;-88
2022/10/28 09:39:48;;;;;;;10.57;5.50;;;18.50;99.90;;;;;;5015831;28;20061;-88
2022/10/28 09:42:20;;;;;;;10.82;5.57;;;18.50;99.90;;;;;;5032632;28;20698;-88
2022/10/28 09:45:02;;;;;;;12.13;5.43;;;18.60;99.90;;;;;;5032210;28;20053;-88
2022/10/28 09:47:53;;;;;;;10.70;5.05;;;18.60;99.90;;;;;;5016257;28;20096;-88
2022/10/28 09:50:21;;;;;;;10.82;5.38;;;18.60;99.90;;;;;;5017850;28;20180;-88
2022/10/28 09:53:03;;;;;;;11.40;5.68;;;18.60;99.90;;;;;;5000223;28;20085;-89
2022/10/28 09:55:30;;;;;;;10.48;5.53;;;18.60;99.90;;;;;;5018829;28;20081;-88
2022/10/28 09:57:56;;;;;;;13.07;6.20;;;18.70;99.90;;;;;;5050434;28;20053;-87
2022/10/28 10:00:21;;;;;;;13.05;5.50;;;18.70;99.90;;;;;;5039010;28;20053;-87
2022/10/28 10:02:47;;;;;;;14.15;6.47;;;18.80;99.90;;;;;;5016016;28;20057;-87
2022/10/28 10:05:14;;;;;;;13.38;6.03;;;18.80;99.90;;;;;;4999944;28;20064;-86
2022/10/28 10:07:43;;;;;;;12.70;5.75;;;18.80;99.90;;;;;;5031970;28;20041;-88
2022/10/28 10:10:34;;;;;;;15.25;5.90;;;18.70;99.90;;;;;;5016104;28;20045;-87
2022/10/28 10:13:01;;;;;;;12.68;5.95;;;18.70;99.90;;;;;;5033454;28;20072;-88
2022/10/28 10:15:35;;;;;;;15.43;6.35;;;18.80;99.90;;;;;;5024010;28;20053;-88
2022/10/28 10:18:01;;;;;;;;;;;18.80;99.90;;;;;;5030355;28;20041;-86
2022/10/28 10:20:27;;;;;;;13.10;5.97;;;18.80;99.90;;;;;;5038449;28;19909;-83
2022/10/28 10:22:52;;;;;;;10.88;5.75;;;18.80;99.90;;;;;;5058210;28;20099;-86
2022/10/28 10:25:18;;;;;;;9.75;5.03;;;18.80;99.90;;;;;;5032015;28;20516;-87
2022/10/28 10:28:15;;;;;;;10.15;5.18;;;18.80;99.90;;;;;;5022129;28;20153;-88
2022/10/28 10:30:51;;;;;;;12.73;5.18;;;18.80;99.90;;;;;;5032301;28;20049;-86
2022/10/28 10:33:29;;;;;;;12.32;4.90;;;18.90;99.90;;;;;;5039712;28;20132;-87
2022/10/28 10:36:00;;;;;;;10.00;5.45;;;18.90;99.90;;;;;;5018392;28;20439;-88
2022/10/28 10:38:26;;;;;;;13.38;5.60;;;18.90;99.90;;;;;;5028653;28;20053;-88
2022/10/28 10:40:52;;;;;;;12.52;5.22;;;18.90;99.90;;;;;;5008435;28;20049;-89
2022/10/28 10:43:44;;;;;;;14.07;5.63;;;18.90;99.90;;;;;;5032919;28;20041;-87
2022/10/28 10:46:22;;;;;;;11.05;5.10;;;18.90;99.90;;;;;;5047265;28;20497;-87
2022/10/28 10:48:47;;;;;;;12.55;5.40;;;19.10;99.90;;;;;;5037404;28;20071;-87
2022/10/28 10:51:17;;;;;;;14.95;5.97;;;19.20;99.90;;;;;;5016236;28;20037;-88
2022/10/28 10:53:47;;;;;;;9.00;5.47;;;19.30;99.90;;;;;;5015529;28;20049;-87
2022/10/28 10:56:14;;;;;;;11.35;5.50;;;19.30;99.90;;;;;;5002888;28;20054;-89
2022/10/28 10:58:47;;;;;;;11.75;5.47;;;19.30;99.90;;;;;;5051106;28;20049;-86
2022/10/28 11:01:16;;;;;;;13.10;5.35;;;19.30;99.90;;;;;;5023204;28;20061;-88
2022/10/28 11:03:50;;;;;;;9.48;4.75;;;19.40;99.90;;;;;;5035411;28;20440;-88
2022/10/28 11:06:22;;;;;;;11.10;5.38;;;19.60;99.90;;;;;;4999288;28;20053;-88
2022/10/28 11:08:47;;;;;;;9.55;5.20;;;19.70;99.90;;;;;;5014956;28;20164;-88
2022/10/28 11:11:20;;;;;;;10.50;5.03;;;19.80;99.90;;;;;;4999435;28;20477;-88
2022/10/28 11:13:47;;;;;;;14.73;5.25;;;19.80;99.90;;;;;;4982638;28;20085;-88
2022/10/28 11:16:18;;;;;;;13.65;5.35;;;19.80;99.90;;;;;;4983165;28;20512;-87
2022/10/28 11:18:45;;;;;;;14.10;5.78;;;19.80;99.90;;;;;;4998828;28;20521;-88
2022/10/28 11:21:32;;;;;;;11.40;4.90;;;19.80;99.90;;;;;;4981689;28;20053;-87
2022/10/28 11:24:31;;;;;;;9.43;4.80;;;19.90;99.90;;;;;;5013728;28;20136;-88
2022/10/28 11:27:06;;;;;;;12.60;5.28;;;20.00;99.90;;;;;;4997416;28;20053;-86
2022/10/28 11:29:32;;;;;;;11.45;4.90;;;20.10;99.90;;;;;;4997559;28;20460;-88
2022/10/28 11:32:16;;;;;;;10.07;5.07;;;20.20;99.90;;;;;;4998560;28;20133;-87
2022/10/28 11:34:58;;;;;;;13.27;5.00;;;20.10;99.90;;;;;;4997885;28;20075;-89
2022/10/28 11:37:37;;;;;;;8.88;5.00;;;20.10;99.90;;;;;;5010599;28;20219;-89
2022/10/28 11:40:06;;;;;;;12.52;6.22;;;20.20;99.90;;;;;;5015756;28;20018;-87
2022/10/28 11:42:44;;;;;;;10.15;5.20;;;20.30;99.90;;;;;;5038019;28;20030;-88
2022/10/28 11:45:30;;;;;;;12.57;5.35;;;20.30;99.90;;;;;;4998858;28;20084;-86
2022/10/28 11:47:56;;;;;;;13.13;5.05;;;20.30;99.90;;;;;;4998351;28;20100;-89
2022/10/28 11:50:32;;;;;;;10.15;5.18;;;20.30;99.90;;;;;;5014132;28;20512;-87
2022/10/28 11:53:17;;;;;;;11.77;5.75;;;20.30;99.90;;;;;;4997528;28;20085;-88
2022/10/28 11:56:05;;;;;;;16.88;6.13;;;20.30;99.90;;;;;;4997472;28;20056;-87
2022/10/28 11:58:44;;;;;;;12.38;6.45;;;20.40;99.90;;;;;;4998218;28;20132;-88
2022/10/28 12:01:34;;;;;;;11.63;5.28;;;20.30;99.90;;;;;;4982992;28;20041;-88
2022/10/28 12:04:28;;;;;;;12.38;5.38;;;20.30;99.90;;;;;;4994143;28;20089;-89
2022/10/28 12:07:05;;;;;;;11.20;5.47;;;20.40;99.90;;;;;;5033710;28;20128;-88
2022/10/28 12:09:40;;;;;;;13.60;5.30;;;20.40;99.90;;;;;;5033498;28;20308;-87
2022/10/28 12:12:22;;;;;;;14.07;5.43;;;20.50;99.90;;;;;;5034121;28;20132;-87
2022/10/28 12:15:10;;;;;;;12.70;5.97;;;20.60;99.90;;;;;;5002065;28;20049;-87
2022/10/28 12:17:37;;;;;;;9.95;5.80;;;20.60;99.90;;;;;;5033885;28;20053;-88
2022/10/28 12:20:07;;;;;;;9.38;5.63;;;20.60;99.90;;;;;;5033271;28;20052;-88
2022/10/28 12:22:39;;;;;;;8.85;5.15;;;20.70;99.90;;;;;;5017682;28;20049;-87
2022/10/28 12:25:11;;;;;;;12.80;5.88;;;20.70;99.90;;;;;;5016407;28;20064;-87
2022/10/28 12:27:39;;;;;;;14.70;5.93;;;20.60;99.90;;;;;;5033549;28;20462;-87
2022/10/28 12:30:25;;;;;;;13.07;6.60;;;20.70;99.90;;;;;;5016064;28;20064;-87
2022/10/28 12:32:53;;;;;;;12.80;5.40;;;20.60;99.90;;;;;;5016020;28;20057;-88
2022/10/28 12:35:37;;;;;;;14.68;4.90;;;20.70;99.90;;;;;;5050396;28;20056;-87
2022/10/28 12:38:09;;;;;;;16.75;5.80;;;20.70;99.90;;;;;;5052930;28;20321;-87
2022/10/28 12:40:57;;;;;;;12.40;4.82;;;20.70;99.90;;;;;;5018349;28;20088;-88
2022/10/28 12:43:42;;;;;;;11.50;5.43;;;20.60;99.90;;;;;;5016633;28;20041;-87
2022/10/28 12:46:31;;;;;;;9.63;4.88;;;20.70;99.90;;;;;;5019433;28;20162;-87
2022/10/28 12:49:00;;;;;;;11.55;5.35;;;20.70;99.90;;;;;;5018821;28;20046;-87
2022/10/28 12:51:44;;;;;;;10.70;5.07;;;20.70;99.90;;;;;;5016717;28;20089;-88
2022/10/28 12:54:31;;;;;;;11.10;5.53;;;20.70;99.90;;;;;;5017037;28;20068;-87